createdAt,value
2018-08-19T00:01:27.845Z,90.28
2018-08-19T00:03:56.266Z,90.61
2018-08-19T00:06:25.081Z,90.57
2018-08-19T00:08:56.454Z,90.50
2018-08-19T00:11:25.102Z,90.51
2018-08-19T00:13:53.561Z,90.72
2018-08-19T00:16:22.009Z,90.88
2018-08-19T00:18:50.441Z,90.98
2018-08-19T00:21:18.945Z,90.47
2018-08-19T00:23:49.288Z,90.83
2018-08-19T00:26:17.814Z,90.19
2018-08-19T00:28:46.336Z,90.26
2018-08-19T00:31:14.820Z,89.99
2018-08-19T00:33:43.274Z,90.47
2018-08-19T00:36:24.825Z,90.46
2018-08-19T00:38:53.837Z,90.48
2018-08-19T00:41:22.280Z,90.38
2018-08-19T00:43:50.905Z,91.18
2018-08-19T00:46:29.164Z,90.71
2018-08-19T00:48:58.404Z,90.82
2018-08-19T00:51:27.539Z,91.37
2018-08-19T00:53:56.413Z,91.24
2018-08-19T00:56:25.909Z,91.52
2018-08-19T00:58:54.505Z,91.36
2018-08-19T01:01:35.490Z,91.77
2018-08-19T01:04:05.370Z,92.02
2018-08-19T01:06:40.565Z,91.74
2018-08-19T01:09:09.713Z,92.36
2018-08-19T01:11:39.766Z,92.89
2018-08-19T01:14:10.479Z,92.06
2018-08-19T01:16:39.062Z,92.90
2018-08-19T01:19:08.357Z,92.52
2018-08-19T01:21:36.933Z,93.13
2018-08-19T01:24:08.754Z,93.12
2018-08-19T01:26:39.494Z,93.37
2018-08-19T01:29:09.351Z,93.08
2018-08-19T01:31:38.027Z,92.52
2018-08-19T01:34:07.657Z,92.77
2018-08-19T01:36:36.137Z,91.96
2018-08-19T01:39:07.750Z,91.13
2018-08-19T01:41:36.876Z,90.33
2018-08-19T01:44:14.882Z,90.15
2018-08-19T01:46:48.025Z,89.78
2018-08-19T01:49:16.669Z,88.86
2018-08-19T01:51:45.573Z,88.30
2018-08-19T01:54:19.367Z,87.68
2018-08-19T01:56:51.873Z,87.58
2018-08-19T01:59:20.392Z,87.43
2018-08-19T02:01:51.062Z,87.88
2018-08-19T02:04:20.137Z,88.18
2018-08-19T02:06:48.576Z,88.65
2018-08-19T02:09:18.245Z,88.98
2018-08-19T02:11:48.650Z,89.58
2018-08-19T02:14:17.982Z,89.83
2018-08-19T02:16:47.116Z,90.16
2018-08-19T02:19:15.661Z,90.48
2018-08-19T02:21:44.733Z,90.44
2018-08-19T02:24:13.744Z,90.00
2018-08-19T02:26:42.289Z,90.22
2018-08-19T02:29:27.385Z,89.60
2018-08-19T02:32:01.905Z,89.13
2018-08-19T02:34:32.374Z,88.96
2018-08-19T02:37:08.121Z,89.10
2018-08-19T02:39:39.768Z,89.12
2018-08-19T02:42:26.689Z,89.34
2018-08-19T02:45:02.171Z,89.04
2018-08-19T02:47:31.089Z,88.91
2018-08-19T02:49:59.586Z,89.22
2018-08-19T02:52:29.233Z,89.52
2018-08-19T02:54:59.627Z,89.88
2018-08-19T02:57:29.224Z,89.66
2018-08-19T02:59:58.645Z,90.26
2018-08-19T03:02:28.855Z,91.49
2018-08-19T03:04:58.449Z,91.94
2018-08-19T03:07:29.554Z,92.66
2018-08-19T03:10:05.562Z,93.83
2018-08-19T03:12:34.338Z,93.28
2018-08-19T03:15:03.065Z,93.78
2018-08-19T03:17:32.418Z,93.97
2018-08-19T03:20:01.449Z,94.22
2018-08-19T03:22:30.622Z,94.92
2018-08-19T03:25:00.406Z,95.34
2018-08-19T03:27:28.854Z,95.95
2018-08-19T03:30:02.611Z,96.08
2018-08-19T03:32:31.054Z,96.42
2018-08-19T03:35:07.691Z,97.23
2018-08-19T03:37:37.388Z,97.04
2018-08-19T03:40:06.778Z,96.50
2018-08-19T03:42:35.258Z,97.02
2018-08-19T03:45:09.056Z,97.59
2018-08-19T03:47:37.508Z,97.96
2018-08-19T03:50:11.233Z,98.36
2018-08-19T03:52:41.325Z,98.86
2018-08-19T03:55:14.014Z,98.55
2018-08-19T03:57:42.469Z,99.15
2018-08-19T04:00:13.313Z,100.00
2018-08-19T04:02:41.773Z,100.00
2018-08-19T04:05:10.417Z,100.00
2018-08-19T04:07:38.885Z,100.00
2018-08-19T04:10:07.374Z,100.00
2018-08-19T04:12:35.803Z,100.00
2018-08-19T04:15:06.200Z,100.00
2018-08-19T04:17:34.826Z,100.00
2018-08-19T04:20:03.487Z,100.00
2018-08-19T04:22:31.994Z,100.00
2018-08-19T04:25:00.594Z,99.15
2018-08-19T04:27:28.998Z,98.74
2018-08-19T04:29:57.499Z,98.27
2018-08-19T04:32:31.741Z,97.50
2018-08-19T04:35:01.062Z,96.90
2018-08-19T04:37:30.011Z,96.01
2018-08-19T04:39:59.706Z,96.23
2018-08-19T04:42:28.169Z,95.59
2018-08-19T04:44:56.626Z,95.43
2018-08-19T04:47:34.846Z,94.98
2018-08-19T04:50:03.349Z,94.38
2018-08-19T04:52:33.037Z,94.13
2018-08-19T04:55:01.621Z,93.33
2018-08-19T04:57:30.037Z,93.33
2018-08-19T04:59:58.660Z,92.80
2018-08-19T05:02:27.376Z,91.06
2018-08-19T05:04:55.866Z,89.49
2018-08-19T05:07:24.311Z,88.57
2018-08-19T05:09:52.796Z,87.29
2018-08-19T05:12:21.318Z,86.08
2018-08-19T05:14:49.836Z,85.16
2018-08-19T05:17:18.241Z,84.08
2018-08-19T05:19:46.705Z,79.85
2018-08-19T05:22:15.722Z,77.90
2018-08-19T05:24:45.729Z,77.53
2018-08-19T05:27:14.893Z,79.10
2018-08-19T05:29:43.297Z,78.00
2018-08-19T05:32:14.191Z,76.90
2018-08-19T05:34:42.925Z,77.85
2018-08-19T05:37:11.546Z,75.96
2018-08-19T05:39:45.121Z,74.99
2018-08-19T05:42:14.214Z,74.34
2018-08-19T05:44:43.291Z,73.60
2018-08-19T05:47:15.403Z,72.30
2018-08-19T05:49:44.965Z,72.12
2018-08-19T05:52:20.369Z,71.42
2018-08-19T05:55:03.585Z,70.00
2018-08-19T05:57:34.309Z,70.21
2018-08-19T06:00:07.995Z,71.80
2018-08-19T06:02:42.507Z,69.96
2018-08-19T06:05:11.030Z,70.08
2018-08-19T06:07:39.615Z,70.23
2018-08-19T06:10:08.337Z,70.58
2018-08-19T06:12:36.766Z,69.72
2018-08-19T06:15:05.870Z,69.31
2018-08-19T06:17:34.418Z,69.65
2018-08-19T06:20:02.987Z,69.34
2018-08-19T06:22:39.593Z,69.21
2018-08-19T06:25:08.257Z,69.31
2018-08-19T06:27:48.933Z,70.46
2018-08-19T06:30:18.331Z,68.44
2018-08-19T06:32:47.093Z,68.58
2018-08-19T06:35:15.711Z,69.57
2018-08-19T06:37:44.266Z,68.93
2018-08-19T06:40:14.822Z,68.25
2018-08-19T06:42:43.427Z,68.34
2018-08-19T06:45:12.790Z,69.00
2018-08-19T06:47:41.510Z,68.23
2018-08-19T06:50:21.026Z,67.58
2018-08-19T06:52:50.818Z,67.06
2018-08-19T06:55:19.875Z,67.21
2018-08-19T06:57:48.484Z,66.12
2018-08-19T07:00:24.187Z,66.28
2018-08-19T07:02:52.993Z,65.51
2018-08-19T07:05:21.844Z,64.00
2018-08-19T07:07:50.329Z,62.78
2018-08-19T07:10:37.238Z,62.69
2018-08-19T07:13:10.427Z,61.35
2018-08-19T07:15:40.363Z,61.56
2018-08-19T07:18:10.794Z,61.06
2018-08-19T07:20:40.718Z,60.10
2018-08-19T07:23:09.925Z,59.59
2018-08-19T07:25:39.503Z,60.70
2018-08-19T07:28:09.649Z,60.90
2018-08-19T07:30:38.493Z,60.95
2018-08-19T07:33:07.241Z,59.27
2018-08-19T07:35:35.757Z,58.20
2018-08-19T07:38:04.488Z,59.89
2018-08-19T07:40:33.250Z,59.81
2018-08-19T07:43:01.997Z,58.73
2018-08-19T07:45:30.433Z,59.73
2018-08-19T07:47:59.031Z,58.92
2018-08-19T07:50:28.245Z,59.16
2018-08-19T07:52:56.745Z,60.00
2018-08-19T07:55:26.429Z,60.00
2018-08-19T07:57:54.905Z,60.43
2018-08-19T08:00:27.548Z,59.93
2018-08-19T08:02:55.975Z,59.57
2018-08-19T08:05:26.879Z,60.35
2018-08-19T08:07:55.362Z,60.66
2018-08-19T08:10:23.901Z,59.63
2018-08-19T08:12:56.289Z,59.59
2018-08-19T08:15:24.800Z,60.71
2018-08-19T08:17:53.406Z,60.50
2018-08-19T08:20:21.914Z,60.12
2018-08-19T08:22:50.422Z,62.37
2018-08-19T08:25:18.917Z,62.79
2018-08-19T08:27:47.326Z,62.25
2018-08-19T08:30:15.882Z,61.85
2018-08-19T08:32:46.673Z,61.73
2018-08-19T08:35:15.173Z,60.42
2018-08-19T08:37:43.693Z,60.02
2018-08-19T08:40:12.694Z,58.48
2018-08-19T08:42:43.465Z,56.97
2018-08-19T08:45:13.265Z,54.48
2018-08-19T08:47:42.242Z,52.80
2018-08-19T08:50:12.267Z,51.63
2018-08-19T08:52:43.601Z,49.89
2018-08-19T08:55:13.017Z,49.59
2018-08-19T08:57:41.674Z,49.99
2018-08-19T09:00:11.453Z,50.21
2018-08-19T09:02:39.970Z,48.44
2018-08-19T09:05:10.648Z,45.43
2018-08-19T09:07:39.792Z,47.23
2018-08-19T09:10:08.541Z,46.58
2018-08-19T09:12:50.697Z,46.85
2018-08-19T09:15:19.310Z,46.22
2018-08-19T09:17:47.902Z,45.01
2018-08-19T09:20:16.389Z,44.02
2018-08-19T09:22:45.756Z,41.88
2018-08-19T09:25:14.310Z,42.04
2018-08-19T09:27:43.493Z,40.04
2018-08-19T09:30:47.661Z,38.74
2018-08-19T09:33:16.173Z,37.75
2018-08-19T09:35:44.949Z,38.13
2018-08-19T09:38:16.667Z,36.12
2018-08-19T09:40:45.564Z,36.39
2018-08-19T09:43:14.398Z,37.44
2018-08-19T09:45:43.273Z,36.92
2018-08-19T09:48:12.442Z,36.26
2018-08-19T09:50:41.565Z,35.35
2018-08-19T09:53:10.115Z,33.54
2018-08-19T09:55:39.626Z,33.46
2018-08-19T09:58:12.580Z,33.83
2018-08-19T10:00:46.350Z,33.08
2018-08-19T10:03:14.877Z,31.25
2018-08-19T10:05:43.442Z,31.96
2018-08-19T10:08:11.964Z,32.69
2018-08-19T10:10:40.450Z,29.85
2018-08-19T10:13:09.074Z,29.86
2018-08-19T10:15:38.010Z,30.49
2018-08-19T10:18:08.603Z,30.13
2018-08-19T10:20:37.119Z,30.30
2018-08-19T10:23:06.011Z,29.12
2018-08-19T10:25:34.617Z,28.86
2018-08-19T10:28:03.775Z,28.32
2018-08-19T10:30:32.282Z,27.34
2018-08-19T10:33:07.110Z,26.91
2018-08-19T10:35:35.874Z,27.29
2018-08-19T10:38:04.876Z,26.91
2018-08-19T10:40:33.413Z,27.20
2018-08-19T10:43:05.495Z,27.33
2018-08-19T10:45:37.103Z,28.10
2018-08-19T10:48:07.208Z,25.99
2018-08-19T10:50:35.711Z,25.84
2018-08-19T10:53:06.480Z,25.53
2018-08-19T10:55:35.046Z,26.01
2018-08-19T10:58:03.642Z,26.07
2018-08-19T11:00:32.798Z,25.10
2018-08-19T11:03:12.762Z,25.41
2018-08-19T11:05:42.794Z,24.77
2018-08-19T11:08:12.012Z,24.89
2018-08-19T11:10:40.545Z,23.27
2018-08-19T11:13:09.029Z,23.69
2018-08-19T11:15:49.413Z,24.20
2018-08-19T11:18:30.757Z,23.50
2018-08-19T11:21:02.462Z,21.92
2018-08-19T11:23:30.886Z,23.53
2018-08-19T11:25:59.517Z,22.97
2018-08-19T11:28:40.860Z,21.61
2018-08-19T11:31:20.652Z,21.76
2018-08-19T11:33:49.476Z,21.61
2018-08-19T11:36:18.170Z,22.04
2018-08-19T11:38:48.536Z,22.01
2018-08-19T11:41:17.722Z,21.72
2018-08-19T11:43:47.190Z,21.58
2018-08-19T11:46:15.677Z,20.55
2018-08-19T11:48:44.467Z,20.82
2018-08-19T11:51:13.257Z,20.36
2018-08-19T11:53:41.749Z,21.53
2018-08-19T11:56:10.337Z,21.44
2018-08-19T11:58:46.638Z,21.79
2018-08-19T12:01:18.477Z,19.93
2018-08-19T12:04:04.992Z,19.88
2018-08-19T12:06:34.117Z,19.31
2018-08-19T12:09:04.753Z,20.02
2018-08-19T12:11:38.789Z,20.34
2018-08-19T12:14:09.397Z,20.50
2018-08-19T12:16:45.212Z,20.74
2018-08-19T12:19:19.117Z,19.38
2018-08-19T12:22:05.725Z,19.46
2018-08-19T12:24:43.427Z,17.93
2018-08-19T12:27:13.379Z,17.74
2018-08-19T12:29:42.696Z,18.34
2018-08-19T12:32:15.852Z,17.78
2018-08-19T12:34:47.618Z,16.68
2018-08-19T12:37:17.293Z,15.96
2018-08-19T12:39:45.930Z,16.50
2018-08-19T12:42:14.517Z,16.75
2018-08-19T12:44:43.171Z,16.31
2018-08-19T12:47:14.833Z,17.84
2018-08-19T12:49:46.994Z,17.08
2018-08-19T12:52:17.977Z,16.72
2018-08-19T12:54:49.965Z,15.63
2018-08-19T12:57:18.598Z,14.84
2018-08-19T12:59:47.163Z,16.17
2018-08-19T13:02:15.633Z,15.67
2018-08-19T13:04:44.095Z,16.67
2018-08-19T13:07:14.130Z,15.50
2018-08-19T13:09:42.610Z,14.93
2018-08-19T13:12:12.553Z,14.88
2018-08-19T13:14:41.106Z,15.11
2018-08-19T13:17:09.659Z,15.57
2018-08-19T13:19:38.146Z,15.60
2018-08-19T13:22:06.594Z,15.13
2018-08-19T13:24:36.726Z,15.96
2018-08-19T13:27:06.037Z,15.36
2018-08-19T13:29:36.291Z,15.92
2018-08-19T13:32:04.917Z,15.09
2018-08-19T13:34:33.647Z,15.25
2018-08-19T13:37:02.150Z,15.32
2018-08-19T13:39:30.636Z,15.74
2018-08-19T13:41:59.108Z,15.49
2018-08-19T13:44:27.758Z,14.44
2018-08-19T13:46:56.234Z,14.34
2018-08-19T13:49:29.131Z,14.35
2018-08-19T13:52:02.173Z,15.05
2018-08-19T13:54:30.679Z,15.34
2018-08-19T13:57:00.294Z,14.45
2018-08-19T13:59:28.857Z,16.14
2018-08-19T14:01:57.391Z,14.73
2018-08-19T14:04:26.084Z,14.44
2018-08-19T14:06:54.554Z,16.28
2018-08-19T14:09:23.099Z,14.62
2018-08-19T14:11:51.612Z,13.57
2018-08-19T14:14:20.309Z,13.81
2018-08-19T14:16:48.994Z,14.86
2018-08-19T14:19:17.474Z,14.89
2018-08-19T14:21:46.018Z,14.91
2018-08-19T14:24:14.533Z,14.18
2018-08-19T14:26:43.287Z,15.25
2018-08-19T14:29:12.162Z,13.93
2018-08-19T14:31:40.925Z,13.74
2018-08-19T14:34:09.437Z,14.53
2018-08-19T14:36:37.897Z,13.73
2018-08-19T14:39:07.107Z,13.59
2018-08-19T14:41:35.678Z,12.92
2018-08-19T14:44:04.548Z,13.29
2018-08-19T14:46:33.939Z,12.16
2018-08-19T14:49:05.558Z,13.35
2018-08-19T14:51:50.198Z,12.93
2018-08-19T14:54:19.086Z,13.80
2018-08-19T14:56:47.658Z,14.72
2018-08-19T14:59:16.289Z,13.64
2018-08-19T15:01:45.601Z,13.79
2018-08-19T15:04:15.887Z,13.44
2018-08-19T15:06:45.339Z,15.07
2018-08-19T15:09:18.316Z,13.47
2018-08-19T15:11:47.644Z,12.73
2018-08-19T15:14:18.383Z,12.42
2018-08-19T15:16:49.151Z,11.93
2018-08-19T15:19:17.615Z,13.22
2018-08-19T15:21:52.977Z,12.12
2018-08-19T15:24:21.425Z,11.94
2018-08-19T15:26:49.904Z,12.57
2018-08-19T15:29:36.942Z,13.20
2018-08-19T15:32:05.753Z,13.34
2018-08-19T15:34:34.202Z,13.29
2018-08-19T15:37:02.691Z,13.20
2018-08-19T15:39:31.297Z,13.41
2018-08-19T15:41:59.809Z,13.91
2018-08-19T15:44:29.103Z,13.69
2018-08-19T15:46:57.908Z,12.85
2018-08-19T15:49:26.664Z,13.33
2018-08-19T15:51:55.281Z,14.44
2018-08-19T15:54:23.842Z,15.06
2018-08-19T15:56:52.405Z,16.23
2018-08-19T15:59:20.890Z,15.37
2018-08-19T16:01:49.487Z,15.98
2018-08-19T16:04:21.076Z,16.32
2018-08-19T16:06:53.440Z,16.33
2018-08-19T16:09:23.366Z,15.79
2018-08-19T16:11:52.448Z,15.36
2018-08-19T16:14:31.326Z,15.82
2018-08-19T16:17:03.681Z,16.02
2018-08-19T16:19:32.183Z,15.59
2018-08-19T16:22:01.178Z,14.96
2018-08-19T16:24:29.908Z,15.53
2018-08-19T16:26:58.555Z,15.90
2018-08-19T16:29:27.393Z,16.73
2018-08-19T16:31:56.138Z,16.15
2018-08-19T16:34:24.784Z,17.77
2018-08-19T16:36:53.401Z,18.45
2018-08-19T16:39:22.410Z,17.50
2018-08-19T16:41:50.873Z,18.12
2018-08-19T16:51:18.725Z,19.56
2018-08-19T16:53:47.254Z,19.49
2018-08-19T16:56:15.726Z,19.64
2018-08-19T16:58:44.221Z,18.59
2018-08-19T17:01:12.934Z,18.56
2018-08-19T17:03:41.874Z,18.89
2018-08-19T17:06:12.977Z,20.56
2018-08-19T17:08:42.003Z,24.67
2018-08-19T17:11:12.105Z,28.29
2018-08-19T17:13:40.901Z,30.34
2018-08-19T17:16:09.805Z,31.76
2018-08-19T17:18:38.330Z,33.37
2018-08-19T17:21:07.332Z,33.98
2018-08-19T17:23:36.081Z,35.08
2018-08-19T17:26:17.288Z,34.70
2018-08-19T17:28:45.700Z,35.56
2018-08-19T17:31:14.217Z,35.63
2018-08-19T17:33:42.790Z,35.98
2018-08-19T17:36:11.317Z,36.87
2018-08-19T17:38:39.778Z,38.02
2018-08-19T17:41:08.177Z,37.71
2018-08-19T17:43:41.538Z,38.71
2018-08-19T17:46:12.090Z,38.17
2018-08-19T17:48:41.664Z,39.20
2018-08-19T17:51:22.541Z,39.63
2018-08-19T17:53:51.437Z,40.47
2018-08-19T17:56:20.609Z,39.12
2018-08-19T17:58:49.922Z,39.48
2018-08-19T18:01:18.526Z,39.73
2018-08-19T18:03:47.085Z,40.15
2018-08-19T18:06:15.518Z,40.77
2018-08-19T18:08:47.893Z,41.21
2018-08-19T18:11:16.638Z,42.22
2018-08-19T18:13:45.185Z,42.89
2018-08-19T18:16:14.398Z,43.76
2018-08-19T18:18:42.937Z,43.82
2018-08-19T18:21:11.503Z,44.52
2018-08-19T18:23:43.437Z,45.36
2018-08-19T18:26:11.858Z,45.79
2018-08-19T18:28:42.133Z,46.20
2018-08-19T18:31:10.713Z,47.08
2018-08-19T18:33:45.389Z,48.09
2018-08-19T18:36:13.851Z,49.47
2018-08-19T18:38:42.310Z,49.68
2018-08-19T18:41:17.738Z,50.28
2018-08-19T18:43:46.777Z,50.67
2018-08-19T18:46:15.389Z,52.01
2018-08-19T18:48:44.314Z,52.80
2018-08-19T18:51:13.312Z,52.14
2018-08-19T18:53:41.821Z,52.81
2018-08-19T18:56:10.525Z,52.65
2018-08-19T18:58:41.135Z,52.08
2018-08-19T19:01:10.781Z,53.61
2018-08-19T19:03:39.554Z,53.56
2018-08-19T19:06:08.568Z,53.92
2018-08-19T19:08:37.030Z,54.80
2018-08-19T19:11:06.202Z,54.83
2018-08-19T19:13:35.845Z,55.17
2018-08-19T19:16:04.350Z,54.69
2018-08-19T19:18:32.810Z,56.07
2018-08-19T19:21:03.398Z,55.54
2018-08-19T19:23:33.737Z,55.40
2018-08-19T19:26:03.846Z,56.10
2018-08-19T19:28:32.701Z,56.37
2018-08-19T19:31:06.409Z,57.16
2018-08-19T19:33:35.717Z,57.64
2018-08-19T19:36:09.622Z,58.10
2018-08-19T19:38:45.342Z,59.14
2018-08-19T19:41:14.093Z,59.85
2018-08-19T19:43:42.782Z,60.33
2018-08-19T19:46:11.593Z,60.95
2018-08-19T19:48:40.061Z,61.64
2018-08-19T19:51:08.813Z,61.87
2018-08-19T19:53:37.327Z,61.68
2018-08-19T19:56:12.742Z,62.68
2018-08-19T19:58:42.355Z,62.39
2018-08-19T20:01:11.189Z,62.76
2018-08-19T20:03:44.123Z,64.18
2018-08-19T20:06:13.274Z,64.31
2018-08-19T20:08:41.996Z,64.54
2018-08-19T20:11:16.912Z,64.05
2018-08-19T20:13:45.338Z,64.27
2018-08-19T20:16:13.945Z,65.06
2018-08-19T20:18:42.455Z,64.65
2018-08-19T20:21:16.101Z,64.65
2018-08-19T20:23:44.888Z,64.66
2018-08-19T20:26:13.593Z,64.86
2018-08-19T20:28:42.274Z,65.24
2018-08-19T20:31:10.738Z,65.69
2018-08-19T20:33:39.331Z,65.98
2018-08-19T20:36:07.889Z,65.89
2018-08-19T20:38:36.530Z,66.47
2018-08-19T20:41:05.170Z,66.89
2018-08-19T20:43:33.786Z,66.64
2018-08-19T20:46:02.330Z,67.00
2018-08-19T20:48:30.780Z,66.85
2018-08-19T20:50:59.339Z,67.20
2018-08-19T20:53:28.453Z,68.09
2018-08-19T20:55:57.114Z,67.85
2018-08-19T20:58:27.195Z,68.64
2018-08-19T21:00:55.702Z,68.63
2018-08-19T21:03:24.289Z,69.19
2018-08-19T21:05:52.766Z,69.23
2018-08-19T21:08:21.321Z,69.39
2018-08-19T21:10:50.236Z,69.74
2018-08-19T21:13:19.987Z,70.09
2018-08-19T21:15:53.879Z,69.87
2018-08-19T21:18:22.326Z,69.10
2018-08-19T21:20:50.949Z,69.33
2018-08-19T21:23:19.454Z,69.46
2018-08-19T21:25:53.159Z,69.25
2018-08-19T21:28:21.804Z,65.81
2018-08-19T21:30:50.318Z,63.42
2018-08-19T21:33:18.793Z,61.72
2018-08-19T21:35:50.078Z,61.04
2018-08-19T21:38:18.663Z,60.01
2018-08-19T21:40:47.156Z,60.35
2018-08-19T21:43:15.677Z,60.72
2018-08-19T21:45:44.154Z,61.50
2018-08-19T21:48:15.129Z,62.36
2018-08-19T21:50:43.749Z,64.41
2018-08-19T21:53:15.430Z,64.81
2018-08-19T21:55:45.025Z,66.26
2018-08-19T21:58:13.554Z,67.33
2018-08-19T22:00:44.645Z,68.50
2018-08-19T22:03:21.377Z,69.32
2018-08-19T22:05:51.156Z,70.21
2018-08-19T22:08:19.734Z,70.64
2018-08-19T22:10:48.968Z,71.19
2018-08-19T22:13:17.474Z,71.84
2018-08-19T22:15:46.741Z,71.79
2018-08-19T22:18:23.129Z,72.63
2018-08-19T22:21:08.508Z,72.10
2018-08-19T22:23:42.364Z,72.68
2018-08-19T22:26:11.841Z,72.85
2018-08-19T22:28:40.773Z,73.32
2018-08-19T22:31:21.193Z,73.07
2018-08-19T22:33:54.893Z,72.95
2018-08-19T22:36:23.293Z,72.97
2018-08-19T22:38:52.713Z,73.65
2018-08-19T22:41:23.936Z,73.19
2018-08-19T22:43:53.358Z,74.23
2018-08-19T22:46:21.784Z,74.43
2018-08-19T22:48:52.096Z,74.13
2018-08-19T22:51:20.853Z,74.67
2018-08-19T22:53:54.890Z,74.73
2018-08-19T22:56:23.747Z,74.37
2018-08-19T22:58:52.353Z,74.93
2018-08-19T23:01:21.062Z,74.84
2018-08-19T23:03:53.972Z,74.87
2018-08-19T23:06:22.490Z,74.63
2018-08-19T23:08:50.961Z,74.14
2018-08-19T23:11:19.492Z,74.21
2018-08-19T23:13:59.097Z,74.24
2018-08-19T23:16:28.025Z,73.92
2018-08-19T23:18:56.641Z,74.32
2018-08-19T23:21:25.102Z,74.72
2018-08-19T23:23:53.619Z,75.72
2018-08-19T23:26:22.150Z,76.45
2018-08-19T23:28:50.671Z,76.26
2018-08-19T23:31:19.206Z,76.32
2018-08-19T23:33:47.706Z,76.72
2018-08-19T23:36:16.201Z,77.53
2018-08-19T23:38:44.622Z,77.11
2018-08-19T23:41:13.159Z,77.25
2018-08-19T23:43:41.598Z,77.10
2018-08-19T23:46:10.149Z,76.98
2018-08-19T23:48:38.573Z,77.90
2018-08-19T23:51:09.269Z,78.39
2018-08-19T23:53:37.806Z,78.36
2018-08-19T23:56:06.393Z,78.77
2018-08-19T23:58:34.847Z,78.66
